Disclaimer

Please do not use the information listed here in-flight or in-navigation, as they are not provided to us by the airports but are provided by volunteers, so they might be outdated.

Search


Regions


Airport information page

Radio informations:
Tower (TWR) - 122.5 MHz
SAKHON NAKHON AP - 123.35 MHz

Airport informations:
Latitude: 17° 23' 01.66" N
Longitude: 104° 38' 34.88" E
Elevation: 587 feet - 179 meters
Operating hours: From sunrise to sunset (SR-SS)
Operating agency: Civil government, landing fees and diplomatic clearance may be required
Timezone: UTC+7
Fuel: N/A

Runway information:
15/33 - 8203 x 148 feet< - >2500 x 45 meters

Recent METARs:
VTUW 210100Z VRB02KT CAVOK 26/23 Q1014 NOSIG

Airport on the map: